CWYO2: Chewey Road

Data processed at Mon Jan 15 2018 23:28


All information presented herein is the property of the government of the United States of America and may be revised or deleted at any time without prior notice.
Dissemination of this information without the expressed written consent of the Public Affairs Office, Tulsa District U.S. Army Corps of Engineers is strictly prohibited.
These data are gathered electronically and, as presented, have not undergone any form of quality control. These data are not guaranteed to be valid or correct.
Go to home page.
Go to station list.

Upstream stations:

Downstream station:
Previous Day
Next Day
Current Day
    
SHEF ID:       CWYO2     Illinois River at Chewey, OK
STATION TYPE:  

               PRECIP     STAGE  STAGE(2)  RIV-FLOW  BAT-LOAD
                   in        ft        ft       cfs      volt
              Ccp-Rev   Ccp-Rev   Ccp-Rev   Ccp-Rev   Ccp-Rev
(US/Central)
01/13 00:00      0.00      4.39      4.23       334     12.60
01/13 01:00      0.00      4.39      4.25       334     12.60
01/13 02:00      0.00      4.38      4.26       329     12.60
01/13 03:00      0.00      4.38      4.27       329     12.60
01/13 04:00      0.00      4.39      4.27       334     12.60
01/13 05:00      0.00      4.38      4.27       329     12.54
01/13 06:00      0.00      4.40      4.21       339     12.54
01/13 07:00      0.00      4.38      4.24       329     12.54
01/13 08:00      0.00      4.38      4.26       329     12.54
01/13 09:00      0.00      4.38      4.26       329     12.54
01/13 10:00      0.00      4.39      4.22       334     12.77
01/13 11:00      0.00      4.39      4.23       334     13.00
01/13 12:00      0.00      4.37      4.20       325     13.42
01/13 13:00      0.00      4.38      4.22       329     13.30
01/13 14:00      0.00      4.38      4.24       329     14.41
01/13 15:00      0.00      4.36      4.20       320     13.24
01/13 16:00      0.00      4.36      4.26       320     12.89
01/13 17:00      0.00      4.36      4.25       320     12.83
01/13 18:00      0.00      4.35      4.25       315     12.71
01/13 19:00      0.00      4.36      4.25       320     12.71
01/13 20:00      0.00      4.36      4.25       320     12.65
01/13 21:00      0.00      4.37      4.24       325     12.65
01/13 22:00      0.00      4.36      4.24       320     12.65
01/13 23:00      0.00      4.36      4.24       320     12.60